Time;durP1;ratioP1;P1;durP2;ratioP2;P2;SDS_P1;SDS_P2;PMS_P1;PMS_P2;Temp;Humidity;BMP_temperature;BMP_pressure;BME280_temperature;BME280_humidity;BME280_pressure;Samples;Min_cycle;Max_cycle;Signal;HPM_P1;HPM_P2
2023/01/03 00:00:01;;;;;;;;;;;;;;;14.69;43.94;99935.38;4469091;32;34075;-93
2023/01/03 00:02:32;;;;;;;;;;;;;;;14.73;43.88;99941.50;4475784;31;34344;-85
2023/01/03 00:04:59;;;;;;;;;;;;;;;14.80;43.57;99944.16;4476407;32;35557;-83
2023/01/03 00:07:32;;;;;;;;;;;;;;;14.52;43.84;99945.69;4470853;31;33488;-82
2023/01/03 00:10:02;;;;;;;;;;;;;;;14.33;44.69;99952.41;4489162;31;34659;-88
2023/01/03 00:12:31;;;;;;;;;;;;;;;13.21;47.38;99957.06;4482853;31;34053;-85
2023/01/03 00:14:58;;;;;;;;;;;;;;;12.25;50.19;99969.31;4469846;31;34828;-89
2023/01/03 00:17:26;;;;;;;;;;;;;;;11.88;51.06;99971.19;4468993;32;33637;-86
2023/01/03 00:19:53;;;;;;;;;;;;;;;11.22;53.50;99974.94;4485995;31;34277;-89
2023/01/03 00:22:20;;;;;;;;;;;;;;;11.82;52.08;99978.81;4469882;32;35310;-88
2023/01/03 00:24:49;;;;;;;;;;;;;;;11.53;53.33;99981.69;4480549;31;34463;-87
2023/01/03 00:27:16;;;;;;;;;;;;;;;11.92;52.60;99973.00;4472097;32;34307;-92
2023/01/03 00:29:43;;;;;;;;;;;;;;;11.30;54.00;99972.53;4481564;31;33218;-83
2023/01/03 00:32:11;;;;;;;;;;;;;;;11.51;53.96;99977.31;4494784;31;34395;-83
2023/01/03 00:34:38;;;;;;;;;;;;;;;11.40;54.76;99980.56;4483503;31;34543;-95
2023/01/03 00:37:05;;;;;;;;;;;;;;;12.21;52.51;99972.72;4471976;31;33675;-95
2023/01/03 00:39:33;;;;;;;;;;;;;;;12.53;51.71;99971.56;4474014;31;34334;-86
2023/01/03 00:42:00;;;;;;;;;;;;;;;11.62;54.27;99981.88;4482120;31;34216;-83
2023/01/03 00:44:27;;;;;;;;;;;;;;;10.17;59.22;99986.09;4473126;32;33837;-95
2023/01/03 00:46:55;;;;;;;;;;;;;;;11.01;57.23;99980.50;4486206;31;33554;-81
2023/01/03 00:49:22;;;;;;;;;;;;;;;10.13;60.21;99985.13;4469280;32;33966;-91
2023/01/03 00:51:50;;;;;;;;;;;;;;;11.78;55.53;99975.31;4485807;31;34018;-79
2023/01/03 00:54:17;;;;;;;;;;;;;;;11.05;57.71;99982.31;4482275;31;35253;-84
2023/01/03 00:56:45;;;;;;;;;;;;;;;11.35;57.28;99976.97;4481492;32;33371;-81
2023/01/03 00:59:13;;;;;;;;;;;;;;;11.32;57.55;99976.00;4479277;32;34652;-81
2023/01/03 01:01:41;;;;;;;;;;;;;;;11.74;56.52;99985.59;4481823;32;34185;-90
2023/01/03 01:04:13;;;;;;;;;;;;;;;11.62;56.87;99989.66;4476459;31;34995;-81
2023/01/03 01:06:42;;;;;;;;;;;;;;;10.68;59.94;99990.91;4479219;32;34477;-89
2023/01/03 01:09:10;;;;;;;;;;;;;;;11.16;58.93;99990.34;4469824;32;34168;-91
2023/01/03 01:11:39;;;;;;;;;;;;;;;11.60;57.51;99993.97;4481871;32;34461;-80
2023/01/03 01:14:18;;;;;;;;;;;;;;;10.73;60.13;99998.81;4481805;32;35223;-87
2023/01/03 01:16:47;;;;;;;;;;;;;;;11.59;57.74;99996.50;4466570;32;33081;-88
2023/01/03 01:19:15;;;;;;;;;;;;;;;11.34;57.85;100002.91;4467636;32;33966;-80
2023/01/03 01:21:43;;;;;;;;;;;;;;;11.78;57.05;100003.00;4481889;31;34360;-81
2023/01/03 01:24:10;;;;;;;;;;;;;;;12.37;54.91;100005.94;4470406;31;35159;-82
2023/01/03 01:26:44;;;;;;;;;;;;;;;12.37;54.91;100005.94;4482468;32;33641;-80
2023/01/03 01:29:11;;;;;;;;;;;;;;;12.44;54.99;100017.34;4477846;32;35733;-82
2023/01/03 01:31:39;;;;;;;;;;;;;;;12.09;55.76;100005.44;4481969;32;34542;-92
2023/01/03 01:34:07;;;;;;;;;;;;;;;12.47;54.76;100005.28;4476646;32;34425;-91
2023/01/03 01:36:36;;;;;;;;;;;;;;;12.69;54.07;99992.66;4479731;32;33477;-93
2023/01/03 01:39:05;;;;;;;;;;;;;;;11.67;56.65;99997.59;4479885;31;34788;-81
2023/01/03 01:44:37;;;;;;;;;;;;;;;12.03;56.30;99989.69;4466880;32;34443;-94
2023/01/03 01:47:09;;;;;;;;;;;;;;;11.92;55.75;99986.88;4478717;32;33104;-95
2023/01/03 01:49:36;;;;;;;;;;;;;;;11.81;56.86;99993.53;4466787;32;34132;-82
2023/01/03 01:52:04;;;;;;;;;;;;;;;12.18;56.26;99984.78;4467456;32;34030;-82
2023/01/03 01:54:31;;;;;;;;;;;;;;;11.58;58.27;99982.66;4469626;31;34779;-85
2023/01/03 01:56:58;;;;;;;;;;;;;;;12.31;56.02;99985.94;4465012;32;33489;-93
2023/01/03 01:59:27;;;;;;;;;;;;;;;11.94;56.36;99984.31;4466875;32;34124;-90
2023/01/03 02:01:54;;;;;;;;;;;;;;;12.65;54.93;99989.09;4465848;32;34181;-93
2023/01/03 02:04:23;;;;;;;;;;;;;;;12.79;54.47;99992.84;4479761;32;33538;-93
2023/01/03 02:06:51;;;;;;;;;;;;;;;12.33;55.64;99998.94;4480826;32;32944;-83
2023/01/03 02:09:18;;;;;;;;;;;;;;;12.45;55.25;100006.09;4470129;32;34777;-85
2023/01/03 02:11:47;;;;;;;;;;;;;;;10.40;62.02;100015.25;4467225;32;33986;-90
2023/01/03 02:14:27;;;;;;;;;;;;;;;11.39;59.18;100009.94;4481128;32;35309;-86
2023/01/03 02:17:00;;;;;;;;;;;;;;;11.32;59.81;100017.53;4467031;32;34218;-93
2023/01/03 02:19:37;;;;;;;;;;;;;;;10.96;61.54;100015.84;4466338;32;34030;-86
2023/01/03 02:22:08;;;;;;;;;;;;;;;10.99;60.62;100015.06;4467226;32;35275;-94
2023/01/03 02:24:35;;;;;;;;;;;;;;;12.16;57.51;100017.69;4481985;31;34071;-93
2023/01/03 02:27:21;;;;;;;;;;;;;;;11.94;58.25;100015.50;4480855;32;34410;-88
2023/01/03 02:30:10;;;;;;;;;;;;;;;11.37;59.94;100005.56;4482543;31;33479;-94
2023/01/03 02:32:43;;;;;;;;;;;;;;;11.83;58.89;100010.09;4463766;32;34191;-88
2023/01/03 02:35:10;;;;;;;;;;;;;;;10.93;62.23;100018.34;4480737;32;34092;-93
2023/01/03 02:37:57;;;;;;;;;;;;;;;11.57;60.32;100011.22;4483353;32;34031;-94
2023/01/03 02:40:28;;;;;;;;;;;;;;;11.65;59.82;100007.94;4491429;31;33561;-91
2023/01/03 02:43:01;;;;;;;;;;;;;;;11.73;59.35;99999.44;4474970;32;34247;-84
2023/01/03 02:45:34;;;;;;;;;;;;;;;10.71;62.35;100007.41;4491990;31;35137;-84
2023/01/03 02:48:10;;;;;;;;;;;;;;;10.38;63.57;100016.91;4468506;32;33511;-83
2023/01/03 02:50:39;;;;;;;;;;;;;;;10.63;62.98;100019.31;4470952;32;34876;-88
2023/01/03 02:53:07;;;;;;;;;;;;;;;10.68;62.04;100012.56;4476691;31;34412;-93
2023/01/03 02:55:35;;;;;;;;;;;;;;;10.11;63.80;100015.28;4485086;32;34573;-92
2023/01/03 02:58:09;;;;;;;;;;;;;;;10.99;61.83;100010.72;4473541;32;33502;-94
2023/01/03 03:00:37;;;;;;;;;;;;;;;10.58;62.59;100001.91;4468239;31;34395;-82
2023/01/03 03:03:05;;;;;;;;;;;;;;;10.02;65.04;100007.25;4483768;31;34321;-84
2023/01/03 03:05:35;;;;;;;;;;;;;;;11.18;61.15;100010.34;4484891;32;34745;-86
2023/01/03 03:08:02;;;;;;;;;;;;;;;11.12;61.04;100019.69;4484249;32;34366;-81
2023/01/03 03:13:28;;;;;;;;;;;;;;;11.44;60.21;100015.25;4467407;32;34256;-82
2023/01/03 03:16:05;;;;;;;;;;;;;;;11.00;61.47;100034.97;4479368;31;34641;-81
2023/01/03 03:18:40;;;;;;;;;;;;;;;10.86;62.24;100032.88;4484085;31;33320;-94
2023/01/03 03:24:48;;;;;;;;;;;;;;;11.07;61.57;100037.75;4483344;31;34361;-86
2023/01/03 03:28:33;;;;;;;;;;;;;;;11.02;61.86;100039.31;4485580;31;35291;-85
2023/01/03 03:29:49;;;;;;;;;;;;;;;11.13;61.03;100032.69;4474672;32;33722;-82
2023/01/03 03:32:16;;;;;;;;;;;;;;;12.03;58.41;100020.00;4469091;32;35548;-82
2023/01/03 03:34:43;;;;;;;;;;;;;;;11.61;59.34;100026.00;4473410;31;33593;-81
2023/01/03 03:37:12;;;;;;;;;;;;;;;11.59;59.89;100028.59;4476480;31;34725;-89
2023/01/03 03:45:24;;;;;;;;;;;;;;;12.74;56.21;100027.44;4467909;32;34391;-85
2023/01/03 03:48:10;;;;;;;;;;;;;;;12.29;57.51;100028.34;4468404;32;35246;-93
2023/01/03 03:50:47;;;;;;;;;;;;;;;12.83;56.03;100022.38;4484718;31;33505;-87
2023/01/03 03:53:14;;;;;;;;;;;;;;;12.81;55.99;100024.09;4496203;31;33924;-83
2023/01/03 03:55:43;;;;;;;;;;;;;;;12.59;56.82;100030.66;4490466;31;34957;-89
2023/01/03 03:58:16;;;;;;;;;;;;;;;12.51;57.43;100024.44;4470700;32;34388;-82
2023/01/03 04:00:43;;;;;;;;;;;;;;;12.24;58.12;100022.19;4469367;32;34604;-81
2023/01/03 04:03:10;;;;;;;;;;;;;;;13.01;56.09;100021.84;4486980;31;35101;-89
2023/01/03 04:05:39;;;;;;;;;;;;;;;13.35;55.07;100023.28;4474617;32;34180;-94
2023/01/03 04:08:06;;;;;;;;;;;;;;;12.98;56.03;100022.66;4485632;32;34147;-95
2023/01/03 04:10:34;;;;;;;;;;;;;;;13.12;55.64;100026.38;4469383;32;34427;-82
2023/01/03 04:13:04;;;;;;;;;;;;;;;12.66;56.97;100022.09;4478988;32;33953;-94
2023/01/03 04:15:31;;;;;;;;;;;;;;;12.51;57.82;100030.50;4469453;32;34026;-82
2023/01/03 04:18:01;;;;;;;;;;;;;;;12.33;58.32;100036.22;4473580;31;35373;-95
2023/01/03 04:20:28;;;;;;;;;;;;;;;11.63;60.78;100043.41;4483868;31;33703;-88
2023/01/03 04:22:56;;;;;;;;;;;;;;;12.14;59.67;100045.38;4480455;32;33734;-82
2023/01/03 04:25:23;;;;;;;;;;;;;;;11.67;61.03;100045.22;4470467;31;34161;-81
2023/01/03 04:27:50;;;;;;;;;;;;;;;11.88;60.96;100051.75;4489375;31;33991;-95
2023/01/03 04:30:18;;;;;;;;;;;;;;;11.87;60.54;100047.41;4489763;31;33422;-82
2023/01/03 04:32:45;;;;;;;;;;;;;;;11.64;61.74;100041.66;4486864;31;35009;-82
2023/01/03 04:35:12;;;;;;;;;;;;;;;12.67;58.12;100042.06;4482976;32;34405;-90
2023/01/03 04:37:39;;;;;;;;;;;;;;;12.40;59.22;100048.50;4483508;32;34369;-85
2023/01/03 04:40:07;;;;;;;;;;;;;;;12.34;59.49;100044.88;4483685;32;34786;-89
2023/01/03 04:45:21;;;;;;;;;;;;;;;11.36;62.82;100042.75;4483622;31;35235;-81
2023/01/03 04:47:48;;;;;;;;;;;;;;;11.94;61.33;100059.69;4483676;31;35059;-83
2023/01/03 04:50:15;;;;;;;;;;;;;;;12.01;60.79;100058.97;4480699;31;33342;-82
2023/01/03 04:52:43;;;;;;;;;;;;;;;11.55;62.16;100063.09;4484078;32;34825;-89
2023/01/03 04:55:11;;;;;;;;;;;;;;;11.03;63.74;100064.47;4475020;32;34015;-93
2023/01/03 04:57:39;;;;;;;;;;;;;;;11.90;61.09;100068.25;4468714;32;34367;-91
2023/01/03 05:00:07;;;;;;;;;;;;;;;11.92;60.73;100074.34;4478074;31;34436;-83
2023/01/03 05:02:34;;;;;;;;;;;;;;;11.11;63.06;100067.25;4496387;31;33888;-82
2023/01/03 05:05:01;;;;;;;;;;;;;;;11.20;63.34;100075.25;4490288;31;33739;-87
2023/01/03 05:07:29;;;;;;;;;;;;;;;11.17;62.95;100075.16;4474116;32;34415;-81
2023/01/03 05:09:56;;;;;;;;;;;;;;;11.30;62.96;100077.22;4478406;32;34535;-85
2023/01/03 05:12:24;;;;;;;;;;;;;;;11.78;61.50;100067.94;4475760;32;33498;-88
2023/01/03 05:14:51;;;;;;;;;;;;;;;11.64;61.48;100070.25;4469005;31;37271;-84
2023/01/03 05:17:19;;;;;;;;;;;;;;;12.06;60.34;100080.72;4494698;31;32894;-88
2023/01/03 05:28:04;;;;;;;;;;;;;;;13.06;56.24;100082.66;4499991;31;33917;-82
2023/01/03 05:30:32;;;;;;;;;;;;;;;12.17;58.54;100081.84;4488073;31;33186;-91
2023/01/03 05:32:59;;;;;;;;;;;;;;;12.61;57.82;100091.37;4473629;31;33413;-91
2023/01/03 05:35:27;;;;;;;;;;;;;;;12.34;58.32;100089.97;4473860;31;34498;-94
2023/01/03 05:37:54;;;;;;;;;;;;;;;12.09;58.76;100098.13;4498478;31;34372;-89
2023/01/03 05:40:21;;;;;;;;;;;;;;;11.62;60.81;100096.16;4483088;32;33304;-85
2023/01/03 05:42:49;;;;;;;;;;;;;;;11.16;62.51;100109.75;4484427;31;34154;-82
2023/01/03 05:45:16;;;;;;;;;;;;;;;12.06;60.13;100108.44;4483776;32;35083;-87
2023/01/03 05:47:43;;;;;;;;;;;;;;;11.07;63.33;100122.50;4486361;31;34438;-81
2023/01/03 05:50:10;;;;;;;;;;;;;;;11.87;61.23;100107.16;4489060;31;34248;-84
2023/01/03 05:52:38;;;;;;;;;;;;;;;12.91;57.80;100117.97;4484745;32;34557;-81
2023/01/03 05:55:05;;;;;;;;;;;;;;;12.93;57.62;100115.41;4482981;31;34066;-81
2023/01/03 05:57:32;;;;;;;;;;;;;;;11.47;61.85;100115.69;4483740;32;34093;-90
2023/01/03 06:00:02;;;;;;;;;;;;;;;12.08;60.88;100111.94;4473486;32;34448;-96
2023/01/03 06:02:31;;;;;;;;;;;;;;;11.27;63.50;100125.59;4492318;31;34012;-96
2023/01/03 06:04:59;;;;;;;;;;;;;;;11.84;61.75;100122.69;4490610;31;34477;-84
2023/01/03 06:07:28;;;;;;;;;;;;;;;12.75;58.79;100123.72;4470149;32;34159;-91
2023/01/03 06:09:55;;;;;;;;;;;;;;;11.77;61.18;100131.13;4457912;31;33669;-94
2023/01/03 06:12:24;;;;;;;;;;;;;;;11.53;61.52;100127.12;4481774;32;34287;-94
2023/01/03 06:14:52;;;;;;;;;;;;;;;12.25;60.21;100125.31;4481415;32;35208;-91
2023/01/03 06:20:05;;;;;;;;;;;;;;;11.87;61.01;100128.81;4488681;31;33682;-89
2023/01/03 06:22:32;;;;;;;;;;;;;;;11.37;62.61;100131.06;4488267;31;34250;-95
2023/01/03 06:25:00;;;;;;;;;;;;;;;11.48;62.03;100131.34;4486732;31;34796;-95
2023/01/03 06:27:28;;;;;;;;;;;;;;;12.92;57.47;100134.47;4471805;32;34465;-82
2023/01/03 06:29:55;;;;;;;;;;;;;;;12.11;59.24;100128.47;4482900;32;34272;-95
2023/01/03 06:32:22;;;;;;;;;;;;;;;12.02;59.78;100128.28;4472405;32;33917;-95
2023/01/03 06:34:50;;;;;;;;;;;;;;;11.66;60.68;100131.75;4485461;32;34282;-95
2023/01/03 06:37:17;;;;;;;;;;;;;;;11.78;60.59;100138.06;4490096;31;34635;-92
2023/01/03 06:39:44;;;;;;;;;;;;;;;12.13;59.63;100133.72;4485776;31;34342;-84
2023/01/03 06:53:18;;;;;;;;;;;;;;;11.66;60.71;100155.13;4484465;32;34124;-94
2023/01/03 06:55:45;;;;;;;;;;;;;;;11.42;61.93;100160.59;4484564;32;34170;-93
2023/01/03 06:58:22;;;;;;;;;;;;;;;12.22;59.15;100159.03;4473196;32;33365;-94
2023/01/03 07:00:49;;;;;;;;;;;;;;;11.43;61.66;100161.47;4488006;31;34437;-94
2023/01/03 07:03:16;;;;;;;;;;;;;;;12.07;60.13;100165.66;4488009;31;33831;-95
2023/01/03 07:05:44;;;;;;;;;;;;;;;11.88;60.59;100169.53;4487533;32;35445;-85
2023/01/03 07:08:11;;;;;;;;;;;;;;;12.46;58.06;100172.56;4486752;32;33895;-95
2023/01/03 07:10:40;;;;;;;;;;;;;;;11.86;59.33;100165.19;4486372;32;33679;-85
2023/01/03 07:15:53;;;;;;;;;;;;;;;11.59;61.18;100180.91;4473279;32;34075;-95
2023/01/03 07:18:21;;;;;;;;;;;;;;;11.58;61.46;100181.75;4473160;32;33757;-94
2023/01/03 07:20:48;;;;;;;;;;;;;;;12.54;58.48;100194.44;4475011;31;33730;-92
2023/01/03 07:23:15;;;;;;;;;;;;;;;12.66;57.84;100191.22;4502789;31;34018;-94
2023/01/03 07:25:42;;;;;;;;;;;;;;;12.51;58.33;100191.75;4490868;31;34094;-88
2023/01/03 07:28:10;;;;;;;;;;;;;;;12.97;57.01;100184.88;4487052;32;34480;-95
2023/01/03 07:30:38;;;;;;;;;;;;;;;11.93;59.73;100193.03;4471012;32;32927;-83
2023/01/03 07:33:06;;;;;;;;;;;;;;;12.55;58.38;100188.38;4472198;32;34083;-95
2023/01/03 07:35:34;;;;;;;;;;;;;;;13.10;56.38;100194.66;4474406;31;35003;-95
2023/01/03 07:38:03;;;;;;;;;;;;;;;12.72;57.54;100191.31;4485535;31;35294;-95
2023/01/03 07:40:30;;;;;;;;;;;;;;;11.76;60.51;100195.22;4486121;32;34493;-91
2023/01/03 07:45:44;;;;;;;;;;;;;;;12.77;57.71;100204.44;4471631;32;34483;-95
2023/01/03 07:48:12;;;;;;;;;;;;;;;12.91;57.30;100202.97;4485061;31;35207;-91
2023/01/03 07:50:39;;;;;;;;;;;;;;;13.61;54.60;100212.12;4489437;32;33716;-94
2023/01/03 07:53:07;;;;;;;;;;;;;;;13.37;55.54;100211.69;4484407;32;34961;-95
2023/01/03 07:55:34;;;;;;;;;;;;;;;13.88;54.14;100200.41;4482918;32;35146;-95
2023/01/03 07:58:01;;;;;;;;;;;;;;;13.10;56.14;100215.50;4483854;32;35170;-90
2023/01/03 08:00:29;;;;;;;;;;;;;;;13.29;55.75;100218.47;4481518;32;33795;-94
2023/01/03 08:02:56;;;;;;;;;;;;;;;12.87;57.10;100224.59;4482291;31;35182;-88
2023/01/03 08:05:24;;;;;;;;;;;;;;;12.85;57.42;100229.78;4493744;31;33744;-94
2023/01/03 08:07:51;;;;;;;;;;;;;;;12.53;58.19;100226.47;4500698;31;35263;-84
2023/01/03 08:13:16;;;;;;;;;;;;;;;12.76;57.63;100229.56;4483767;31;34236;-93
2023/01/03 08:15:50;;;;;;;;;;;;;;;12.92;57.31;100230.78;4473338;32;34842;-83
2023/01/03 08:18:18;;;;;;;;;;;;;;;12.98;57.11;100230.00;4467601;32;35168;-95
2023/01/03 08:20:46;;;;;;;;;;;;;;;13.04;56.97;100232.75;4486118;32;34208;-93
2023/01/03 08:23:13;;;;;;;;;;;;;;;13.89;54.26;100238.66;4488122;31;34262;-92
2023/01/03 08:25:41;;;;;;;;;;;;;;;12.58;58.00;100234.41;4487333;31;34024;-80
2023/01/03 08:28:08;;;;;;;;;;;;;;;13.13;56.18;100236.38;4482349;32;34497;-95
2023/01/03 08:30:46;;;;;;;;;;;;;;;13.55;55.20;100239.81;4473083;32;33516;-91
2023/01/03 08:33:13;;;;;;;;;;;;;;;13.24;56.14;100239.25;4470581;32;33935;-81
2023/01/03 08:35:41;;;;;;;;;;;;;;;12.07;59.77;100238.44;4480497;32;33860;-87
2023/01/03 08:38:10;;;;;;;;;;;;;;;11.97;60.64;100248.56;4475106;31;33599;-95
2023/01/03 08:40:37;;;;;;;;;;;;;;;12.58;59.11;100242.19;4487035;31;34439;-81
2023/01/03 08:44:48;;;;;;;;;;;;;;;13.65;56.52;100240.84;4466141;31;950875;-82
2023/01/03 08:47:16;;;;;;;;;;;;;;;13.65;56.52;100240.84;4498087;31;32942;-86
2023/01/03 08:49:43;;;;;;;;;;;;;;;13.09;57.56;100250.19;4488986;31;33383;-83
2023/01/03 08:52:10;;;;;;;;;;;;;;;14.26;54.20;100257.50;4481680;32;34080;-84
2023/01/03 08:54:38;;;;;;;;;;;;;;;13.21;57.46;100259.09;4506863;31;33893;-82
2023/01/03 08:57:05;;;;;;;;;;;;;;;13.54;56.57;100258.91;4496012;31;31629;-94
2023/01/03 08:59:32;;;;;;;;;;;;;;;13.79;56.11;100255.88;4500229;31;33931;-83
2023/01/03 09:02:00;;;;;;;;;;;;;;;14.55;53.73;100251.00;4486874;32;35488;-82
2023/01/03 09:04:28;;;;;;;;;;;;;;;13.83;55.60;100262.03;4484096;32;34133;-96
2023/01/03 09:06:55;;;;;;;;;;;;;;;14.63;53.49;100255.47;4483782;31;32443;-81
2023/01/03 09:09:23;;;;;;;;;;;;;;;14.01;54.78;100269.25;4513118;31;33542;-94
2023/01/03 09:11:50;;;;;;;;;;;;;;;13.62;56.43;100272.94;4513808;31;34361;-84
2023/01/03 09:14:17;;;;;;;;;;;;;;;13.22;57.91;100266.97;4511764;31;33259;-94
2023/01/03 09:16:44;;;;;;;;;;;;;;;13.80;56.12;100268.06;4497135;31;32868;-89
2023/01/03 09:19:15;;;;;;;;;;;;;;;13.89;56.13;100267.31;4482946;32;34358;-82
2023/01/03 09:21:43;;;;;;;;;;;;;;;14.04;55.90;100271.91;4464849;31;34015;-95
2023/01/03 09:24:11;;;;;;;;;;;;;;;14.01;55.03;100275.34;4455179;32;33344;-96
2023/01/03 09:26:38;;;;;;;;;;;;;;;12.77;59.59;100266.91;4496191;31;33035;-87
2023/01/03 09:29:05;;;;;;;;;;;;;;;12.54;60.58;100271.56;4495812;32;34154;-96
2023/01/03 09:31:33;;;;;;;;;;;;;;;13.14;59.02;100268.50;4476082;32;35024;-85
2023/01/03 09:34:04;;;;;;;;;;;;;;;13.27;58.49;100269.69;4504329;32;34176;-94
2023/01/03 09:36:31;;;;;;;;;;;;;;;12.91;60.23;100276.72;4510978;31;33226;-83
2023/01/03 09:38:59;;;;;;;;;;;;;;;13.83;57.43;100272.47;4508785;32;34615;-85
2023/01/03 09:41:26;;;;;;;;;;;;;;;14.26;56.26;100268.81;4509538;31;35545;-83
2023/01/03 09:43:58;;;;;;;;;;;;;;;13.13;59.13;100267.63;4510085;32;34167;-94
2023/01/03 09:46:26;;;;;;;;;;;;;;;13.70;57.79;100271.34;4494113;32;33533;-82
2023/01/03 09:48:56;;;;;;;;;;;;;;;12.78;60.19;100264.31;4492357;31;33493;-83
2023/01/03 10:05:50;;;;;;;;;;;;;;;12.31;62.29;100265.84;4486356;32;33963;-83
2023/01/03 10:08:23;;;;;;;;;;;;;;;12.61;61.57;100266.56;4479039;32;33649;-82
2023/01/03 10:11:00;;;;;;;;;;;;;;;12.25;61.74;100263.13;4472383;32;33921;-84
2023/01/03 10:13:28;;;;;;;;;;;;;;;11.79;62.89;100267.16;4488783;32;34047;-82
2023/01/03 10:15:55;;;;;;;;;;;;;;;12.55;60.58;100268.13;4496037;32;34084;-93
2023/01/03 10:18:37;;;;;;;;;;;;;;;12.75;59.70;100258.16;4492052;32;34659;-88
2023/01/03 10:21:06;;;;;;;;;;;;;;;12.81;59.96;100255.69;4492341;32;34372;-84
2023/01/03 10:23:34;;;;;;;;;;;;;;;12.68;59.97;100251.94;4476460;32;34725;-87
2023/01/03 10:26:04;;;;;;;;;;;;;;;13.65;56.70;100257.37;4480359;32;34351;-84
2023/01/03 10:28:36;;;;;;;;;;;;;;;13.84;56.45;100258.56;4478378;32;33454;-91
2023/01/03 10:31:22;;;;;;;;;;;;;;;14.01;56.09;100251.00;4459777;32;33735;-96
2023/01/03 10:33:50;;;;;;;;;;;;;;;13.41;57.41;100252.59;4467545;32;34565;-86
2023/01/03 10:36:18;;;;;;;;;;;;;;;12.59;59.69;100247.44;4493421;32;35067;-96
2023/01/03 10:38:45;;;;;;;;;;;;;;;13.06;59.28;100255.34;4474382;32;33341;-95
2023/01/03 10:41:20;;;;;;;;;;;;;;;13.55;57.86;100250.22;4453854;32;34763;-94
2023/01/03 10:44:00;;;;;;;;;;;;;;;13.83;56.85;100255.09;4476849;32;34797;-96
2023/01/03 10:46:29;;;;;;;;;;;;;;;13.57;57.52;100249.41;4453261;32;33412;-94
2023/01/03 10:49:11;;;;;;;;;;;;;;;13.49;57.39;100245.81;4454708;32;33555;-93
2023/01/03 10:52:01;;;;;;;;;;;;;;;13.16;58.71;100243.41;4487615;32;34492;-95
2023/01/03 10:54:51;;;;;;;;;;;;;;;13.28;58.39;100243.66;4484957;32;34394;-85
2023/01/03 10:57:32;;;;;;;;;;;;;;;13.33;58.07;100242.03;4485109;32;33970;-89
2023/01/03 11:00:00;;;;;;;;;;;;;;;12.33;61.39;100244.25;4461483;32;31423;-96
2023/01/03 11:02:27;;;;;;;;;;;;;;;13.27;58.77;100239.31;4491614;32;34983;-96
2023/01/03 11:05:06;;;;;;;;;;;;;;;13.63;56.74;100244.28;4472501;32;34371;-91
2023/01/03 11:07:33;;;;;;;;;;;;;;;13.28;57.92;100234.97;4473243;32;34227;-95
2023/01/03 11:10:01;;;;;;;;;;;;;;;13.51;57.69;100238.88;4472878;32;33187;-94
2023/01/03 11:12:28;;;;;;;;;;;;;;;12.69;59.25;100225.09;4483748;32;33999;-82
2023/01/03 11:14:56;;;;;;;;;;;;;;;13.36;57.25;100233.37;4491131;32;34040;-84
2023/01/03 11:17:24;;;;;;;;;;;;;;;13.09;58.84;100218.09;4477794;32;34497;-82
2023/01/03 11:19:51;;;;;;;;;;;;;;;13.79;56.26;100213.31;4461295;32;32679;-81
2023/01/03 11:22:40;;;;;;;;;;;;;;;13.82;56.23;100208.12;4478361;32;34351;-82
2023/01/03 11:25:07;;;;;;;;;;;;;;;14.17;55.37;100220.81;4472978;32;34722;-81
2023/01/03 11:27:50;;;;;;;;;;;;;;;13.20;57.65;100226.09;4480064;32;34370;-83
2023/01/03 11:30:17;;;;;;;;;;;;;;;13.17;58.91;100226.91;4481864;32;33694;-83
2023/01/03 11:32:44;;;;;;;;;;;;;;;13.06;58.95;100224.09;4481799;32;34548;-96
2023/01/03 11:35:17;;;;;;;;;;;;;;;13.33;58.15;100231.62;4480293;32;35503;-94
2023/01/03 11:37:55;;;;;;;;;;;;;;;13.77;56.40;100231.50;4468313;32;33913;-96
2023/01/03 11:40:41;;;;;;;;;;;;;;;13.75;56.43;100227.13;4457340;32;33472;-96
2023/01/03 11:43:15;;;;;;;;;;;;;;;13.10;58.03;100220.69;4488227;32;34172;-96
2023/01/03 11:45:48;;;;;;;;;;;;;;;13.28;57.72;100224.56;4486096;32;34451;-82
2023/01/03 11:48:34;;;;;;;;;;;;;;;13.47;57.15;100221.44;4473539;32;34017;-95
2023/01/03 11:51:14;;;;;;;;;;;;;;;13.87;56.24;100216.91;4477348;32;33194;-84
2023/01/03 11:53:51;;;;;;;;;;;;;;;14.27;54.51;100212.28;4465595;32;34946;-95
2023/01/03 11:56:26;;;;;;;;;;;;;;;13.14;57.83;100216.44;4474611;32;34293;-86
2023/01/03 11:59:13;;;;;;;;;;;;;;;13.98;56.02;100215.34;4463431;32;34368;-84
2023/01/03 12:01:52;;;;;;;;;;;;;;;14.83;53.89;100210.47;4478969;32;33299;-88
2023/01/03 12:04:24;;;;;;;;;;;;;;;14.13;55.01;100217.31;4485793;32;35428;-91
2023/01/03 12:07:12;;;;;;;;;;;;;;;13.51;56.80;100211.94;4469693;32;34445;-86
2023/01/03 12:10:05;;;;;;;;;;;;;;;13.90;55.46;100213.47;4478428;32;33931;-95
2023/01/03 12:12:36;;;;;;;;;;;;;;;14.50;53.94;100213.53;4483281;32;33297;-80
2023/01/03 12:15:12;;;;;;;;;;;;;;;13.45;56.46;100220.53;4463752;32;35532;-95
2023/01/03 12:17:43;;;;;;;;;;;;;;;14.21;54.41;100209.63;4456345;32;34213;-91
2023/01/03 12:20:27;;;;;;;;;;;;;;;14.57;53.10;100199.69;4473216;32;34740;-89
2023/01/03 12:23:14;;;;;;;;;;;;;;;14.91;52.36;100202.72;4463988;32;33511;-94
2023/01/03 12:25:42;;;;;;;;;;;;;;;15.08;52.22;100195.97;4477673;32;34984;-91
2023/01/03 12:28:09;;;;;;;;;;;;;;;13.83;55.09;100200.34;4467038;32;33847;-91
2023/01/03 12:30:39;;;;;;;;;;;;;;;14.77;52.12;100189.53;4472505;32;34208;-95
2023/01/03 12:33:13;;;;;;;;;;;;;;;14.73;52.76;100192.94;4477017;32;33122;-96
2023/01/03 12:35:43;;;;;;;;;;;;;;;14.05;54.32;100185.91;4485587;32;32735;-90
2023/01/03 12:38:10;;;;;;;;;;;;;;;14.03;54.83;100189.34;4464887;32;34649;-94
2023/01/03 12:40:41;;;;;;;;;;;;;;;14.04;54.84;100191.97;4467791;32;32142;-94
2023/01/03 12:43:20;;;;;;;;;;;;;;;14.32;53.80;100195.00;4466722;32;32920;-91
2023/01/03 12:45:59;;;;;;;;;;;;;;;14.92;52.07;100191.41;4469494;32;33943;-90
2023/01/03 12:48:41;;;;;;;;;;;;;;;13.67;55.78;100208.75;4472151;32;35311;-85
2023/01/03 12:51:08;;;;;;;;;;;;;;;14.18;53.80;100194.78;4472684;32;34988;-96
2023/01/03 12:53:38;;;;;;;;;;;;;;;13.70;55.30;100203.59;4474216;32;34125;-96
2023/01/03 12:56:15;;;;;;;;;;;;;;;13.90;54.67;100205.63;4488963;32;34011;-95
2023/01/03 12:58:55;;;;;;;;;;;;;;;14.43;53.33;100193.37;4494804;32;34383;-89
2023/01/03 13:01:27;;;;;;;;;;;;;;;14.08;53.92;100195.50;4471183;32;33984;-96
2023/01/03 13:03:56;;;;;;;;;;;;;;;14.57;52.65;100191.88;4465172;32;33840;-96
2023/01/03 13:06:31;;;;;;;;;;;;;;;14.74;52.51;100194.72;4472080;32;34731;-88
2023/01/03 13:09:00;;;;;;;;;;;;;;;14.51;52.22;100189.19;4461028;32;34516;-83
2023/01/03 13:11:30;;;;;;;;;;;;;;;14.57;52.37;100197.09;4464295;32;35005;-94
2023/01/03 13:14:02;;;;;;;;;;;;;;;14.35;53.37;100200.22;4480031;32;33546;-86
2023/01/03 13:16:40;;;;;;;;;;;;;;;13.93;54.32;100208.28;4459548;32;33953;-96
2023/01/03 13:19:34;;;;;;;;;;;;;;;14.05;54.25;100201.56;4463126;32;34171;-96
2023/01/03 13:22:01;;;;;;;;;;;;;;;14.00;53.85;100198.00;4449608;32;34350;-88
2023/01/03 13:24:37;;;;;;;;;;;;;;;13.97;53.64;100200.53;4466293;32;33217;-83
2023/01/03 13:27:21;;;;;;;;;;;;;;;13.28;55.54;100198.50;4466590;32;35116;-95
2023/01/03 13:29:48;;;;;;;;;;;;;;;14.33;52.40;100195.00;4467911;32;35149;-94
2023/01/03 13:32:23;;;;;;;;;;;;;;;14.47;52.51;100200.44;4475719;32;33679;-91
2023/01/03 13:34:56;;;;;;;;;;;;;;;14.39;52.64;100201.16;4474853;32;33289;-96
2023/01/03 13:37:25;;;;;;;;;;;;;;;13.66;54.47;100206.13;4480871;32;34078;-85
2023/01/03 13:40:16;;;;;;;;;;;;;;;14.72;51.16;100200.75;4471393;32;33557;-83
2023/01/03 13:42:43;;;;;;;;;;;;;;;14.54;51.77;100198.78;4463083;32;32621;-93
2023/01/03 13:45:10;;;;;;;;;;;;;;;14.60;51.38;100198.88;4467932;32;34160;-94
2023/01/03 13:47:41;;;;;;;;;;;;;;;14.55;51.30;100196.22;4472534;32;34191;-92
2023/01/03 13:50:21;;;;;;;;;;;;;;;14.17;52.25;100195.66;4462011;32;34373;-93
2023/01/03 13:52:56;;;;;;;;;;;;;;;14.56;51.44;100205.78;4466677;32;34886;-83
2023/01/03 13:55:36;;;;;;;;;;;;;;;13.54;53.63;100210.28;4470489;32;33384;-88
2023/01/03 13:58:27;;;;;;;;;;;;;;;14.08;52.48;100201.59;4484077;32;33781;-85